sensor_id;sensor_type;location;lat;lon;timestamp;pressure;altitude;pressure_sealevel;temperature;humidity
71873;BME280;59745;52.924;-2.388;2022-07-29T00:03:02;99529.89;;;24.03;31.34
71873;BME280;59745;52.924;-2.388;2022-07-29T00:05:26;99531.92;;;24.27;31.29
71873;BME280;59745;52.924;-2.388;2022-07-29T00:07:51;99531.32;;;24.12;31.52
71873;BME280;59745;52.924;-2.388;2022-07-29T00:10:16;99530.68;;;24.07;31.55
71873;BME280;59745;52.924;-2.388;2022-07-29T00:12:42;99530.48;;;23.79;31.56
71873;BME280;59745;52.924;-2.388;2022-07-29T00:15:08;99529.62;;;23.98;31.48
71873;BME280;59745;52.924;-2.388;2022-07-29T00:17:32;99530.32;;;24.17;31.45
71873;BME280;59745;52.924;-2.388;2022-07-29T00:19:57;99531.99;;;24.11;31.36
71873;BME280;59745;52.924;-2.388;2022-07-29T00:22:22;99531.33;;;24.24;31.38
71873;BME280;59745;52.924;-2.388;2022-07-29T00:24:48;99531.53;;;23.72;31.65
71873;BME280;59745;52.924;-2.388;2022-07-29T00:27:13;99528.34;;;23.23;32.17
71873;BME280;59745;52.924;-2.388;2022-07-29T00:29:38;99524.17;;;23.36;32.44
71873;BME280;59745;52.924;-2.388;2022-07-29T00:32:03;99520.44;;;23.33;32.62
71873;BME280;59745;52.924;-2.388;2022-07-29T00:34:29;99522.61;;;23.15;32.62
71873;BME280;59745;52.924;-2.388;2022-07-29T00:36:54;99529.28;;;22.76;33.19
71873;BME280;59745;52.924;-2.388;2022-07-29T00:39:19;99523.16;;;23.42;32.63
71873;BME280;59745;52.924;-2.388;2022-07-29T00:41:45;99521.28;;;23.18;32.30
71873;BME280;59745;52.924;-2.388;2022-07-29T00:44:10;99517.26;;;23.32;32.14
71873;BME280;59745;52.924;-2.388;2022-07-29T00:46:35;99518.70;;;23.30;32.31
71873;BME280;59745;52.924;-2.388;2022-07-29T00:49:00;99518.37;;;23.52;32.35
71873;BME280;59745;52.924;-2.388;2022-07-29T00:51:25;99520.29;;;23.08;32.65
71873;BME280;59745;52.924;-2.388;2022-07-29T00:53:50;99513.96;;;23.06;32.70
71873;BME280;59745;52.924;-2.388;2022-07-29T00:56:15;99512.94;;;23.34;32.44
71873;BME280;59745;52.924;-2.388;2022-07-29T00:58:41;99512.61;;;23.18;32.51
71873;BME280;59745;52.924;-2.388;2022-07-29T01:01:06;99514.02;;;23.27;32.47
71873;BME280;59745;52.924;-2.388;2022-07-29T01:03:31;99508.51;;;23.34;32.38
71873;BME280;59745;52.924;-2.388;2022-07-29T01:05:56;99508.89;;;23.10;32.50
71873;BME280;59745;52.924;-2.388;2022-07-29T01:08:23;99509.82;;;23.13;32.46
71873;BME280;59745;52.924;-2.388;2022-07-29T01:10:47;99516.56;;;22.95;32.82
71873;BME280;59745;52.924;-2.388;2022-07-29T01:13:13;99514.66;;;23.09;32.53
71873;BME280;59745;52.924;-2.388;2022-07-29T01:15:42;99514.55;;;23.15;32.52
71873;BME280;59745;52.924;-2.388;2022-07-29T01:18:07;99520.66;;;23.26;32.20
71873;BME280;59745;52.924;-2.388;2022-07-29T01:20:36;99515.55;;;23.67;31.77
71873;BME280;59745;52.924;-2.388;2022-07-29T01:23:11;99513.90;;;23.51;31.85
71873;BME280;59745;52.924;-2.388;2022-07-29T01:25:31;99515.44;;;23.50;31.73
71873;BME280;59745;52.924;-2.388;2022-07-29T01:27:53;99514.99;;;22.83;31.66
71873;BME280;59745;52.924;-2.388;2022-07-29T01:30:08;99517.27;;;23.15;32.12
71873;BME280;59745;52.924;-2.388;2022-07-29T01:32:36;99518.75;;;23.15;32.15
71873;BME280;59745;52.924;-2.388;2022-07-29T01:35:03;99519.64;;;22.92;32.18
71873;BME280;59745;52.924;-2.388;2022-07-29T01:37:27;99517.75;;;22.62;32.70
71873;BME280;59745;52.924;-2.388;2022-07-29T01:39:52;99520.42;;;22.79;32.22
71873;BME280;59745;52.924;-2.388;2022-07-29T01:42:19;99519.27;;;22.79;32.30
71873;BME280;59745;52.924;-2.388;2022-07-29T01:44:45;99514.59;;;22.82;32.13
71873;BME280;59745;52.924;-2.388;2022-07-29T01:47:12;99515.55;;;22.79;32.39
71873;BME280;59745;52.924;-2.388;2022-07-29T01:49:33;99517.66;;;22.51;32.67
71873;BME280;59745;52.924;-2.388;2022-07-29T01:51:58;99519.30;;;22.30;32.80
71873;BME280;59745;52.924;-2.388;2022-07-29T01:54:25;99520.70;;;22.79;32.33
71873;BME280;59745;52.924;-2.388;2022-07-29T01:56:48;99521.24;;;22.05;33.18
71873;BME280;59745;52.924;-2.388;2022-07-29T01:59:11;99519.39;;;22.44;33.22
71873;BME280;59745;52.924;-2.388;2022-07-29T02:01:36;99516.15;;;21.83;33.56
71873;BME280;59745;52.924;-2.388;2022-07-29T02:04:03;99512.97;;;22.60;33.06
71873;BME280;59745;52.924;-2.388;2022-07-29T02:06:26;99517.84;;;22.17;32.95
71873;BME280;59745;52.924;-2.388;2022-07-29T02:08:52;99516.90;;;21.98;33.09
71873;BME280;59745;52.924;-2.388;2022-07-29T02:11:16;99516.83;;;22.32;33.23
71873;BME280;59745;52.924;-2.388;2022-07-29T02:13:41;99517.19;;;21.95;33.33
71873;BME280;59745;52.924;-2.388;2022-07-29T02:16:08;99517.60;;;22.32;33.02
71873;BME280;59745;52.924;-2.388;2022-07-29T02:18:32;99514.30;;;21.64;33.77
71873;BME280;59745;52.924;-2.388;2022-07-29T02:20:58;99512.20;;;21.99;33.62
71873;BME280;59745;52.924;-2.388;2022-07-29T02:23:23;99511.44;;;21.72;33.60
71873;BME280;59745;52.924;-2.388;2022-07-29T02:25:48;99508.56;;;21.81;33.26
71873;BME280;59745;52.924;-2.388;2022-07-29T02:28:13;99507.02;;;21.84;33.38
71873;BME280;59745;52.924;-2.388;2022-07-29T02:30:40;99506.80;;;22.10;32.86
71873;BME280;59745;52.924;-2.388;2022-07-29T02:33:03;99506.48;;;22.12;33.08
71873;BME280;59745;52.924;-2.388;2022-07-29T02:35:28;99508.15;;;22.06;33.05
71873;BME280;59745;52.924;-2.388;2022-07-29T02:37:53;99511.35;;;21.57;33.30
71873;BME280;59745;52.924;-2.388;2022-07-29T02:40:18;99509.61;;;22.14;33.01
71873;BME280;59745;52.924;-2.388;2022-07-29T02:42:44;99512.12;;;21.49;33.34
71873;BME280;59745;52.924;-2.388;2022-07-29T02:45:09;99509.80;;;21.91;33.49
71873;BME280;59745;52.924;-2.388;2022-07-29T02:47:37;99512.63;;;21.93;33.03
71873;BME280;59745;52.924;-2.388;2022-07-29T02:50:02;99509.12;;;22.20;32.95
71873;BME280;59745;52.924;-2.388;2022-07-29T02:52:26;99509.45;;;21.85;33.04
71873;BME280;59745;52.924;-2.388;2022-07-29T02:54:53;99509.84;;;21.91;32.44
71873;BME280;59745;52.924;-2.388;2022-07-29T02:57:19;99514.97;;;21.93;32.68
71873;BME280;59745;52.924;-2.388;2022-07-29T02:59:41;99514.48;;;22.15;32.73
71873;BME280;59745;52.924;-2.388;2022-07-29T03:02:05;99518.76;;;21.64;33.01
71873;BME280;59745;52.924;-2.388;2022-07-29T03:04:30;99520.44;;;22.35;32.42
71873;BME280;59745;52.924;-2.388;2022-07-29T03:06:58;99521.42;;;22.17;31.97
71873;BME280;59745;52.924;-2.388;2022-07-29T03:09:20;99522.03;;;22.03;32.00
71873;BME280;59745;52.924;-2.388;2022-07-29T03:11:45;99519.44;;;21.69;32.70
71873;BME280;59745;52.924;-2.388;2022-07-29T03:14:10;99517.80;;;21.71;32.82
71873;BME280;59745;52.924;-2.388;2022-07-29T03:16:35;99521.37;;;21.59;33.05
71873;BME280;59745;52.924;-2.388;2022-07-29T03:19:00;99520.54;;;21.58;33.00
71873;BME280;59745;52.924;-2.388;2022-07-29T03:21:26;99525.10;;;21.78;32.99
71873;BME280;59745;52.924;-2.388;2022-07-29T03:23:51;99524.56;;;21.38;33.01
71873;BME280;59745;52.924;-2.388;2022-07-29T03:26:16;99521.74;;;21.63;32.83
71873;BME280;59745;52.924;-2.388;2022-07-29T03:28:41;99523.55;;;21.65;33.03
71873;BME280;59745;52.924;-2.388;2022-07-29T03:31:06;99524.22;;;22.08;32.68
71873;BME280;59745;52.924;-2.388;2022-07-29T03:33:31;99526.65;;;21.47;33.22
71873;BME280;59745;52.924;-2.388;2022-07-29T03:35:57;99525.61;;;21.50;33.49
71873;BME280;59745;52.924;-2.388;2022-07-29T03:38:25;99528.15;;;21.49;33.39
71873;BME280;59745;52.924;-2.388;2022-07-29T03:40:51;99525.74;;;21.49;33.74
71873;BME280;59745;52.924;-2.388;2022-07-29T03:43:13;99525.07;;;20.93;34.14
71873;BME280;59745;52.924;-2.388;2022-07-29T03:45:38;99524.32;;;20.96;34.01
71873;BME280;59745;52.924;-2.388;2022-07-29T03:48:06;99526.91;;;21.34;33.65
71873;BME280;59745;52.924;-2.388;2022-07-29T03:50:29;99524.92;;;21.81;33.03
71873;BME280;59745;52.924;-2.388;2022-07-29T03:52:52;99528.98;;;21.79;33.08
71873;BME280;59745;52.924;-2.388;2022-07-29T03:55:18;99527.59;;;21.16;33.64
71873;BME280;59745;52.924;-2.388;2022-07-29T03:57:45;99534.45;;;21.44;33.39
71873;BME280;59745;52.924;-2.388;2022-07-29T04:00:19;99536.29;;;21.70;33.06
71873;BME280;59745;52.924;-2.388;2022-07-29T04:02:34;99535.50;;;21.72;33.12
71873;BME280;59745;52.924;-2.388;2022-07-29T04:04:59;99532.92;;;21.90;33.00
71873;BME280;59745;52.924;-2.388;2022-07-29T04:07:24;99533.29;;;21.76;32.98
71873;BME280;59745;52.924;-2.388;2022-07-29T04:09:50;99535.80;;;21.69;33.39
71873;BME280;59745;52.924;-2.388;2022-07-29T04:12:14;99533.42;;;22.05;33.22
71873;BME280;59745;52.924;-2.388;2022-07-29T04:14:39;99532.33;;;21.93;33.10
71873;BME280;59745;52.924;-2.388;2022-07-29T04:17:05;99533.53;;;21.35;33.93
71873;BME280;59745;52.924;-2.388;2022-07-29T04:19:30;99539.31;;;21.66;33.57
71873;BME280;59745;52.924;-2.388;2022-07-29T04:21:55;99543.78;;;21.62;33.67
71873;BME280;59745;52.924;-2.388;2022-07-29T04:24:20;99543.75;;;21.72;33.56
71873;BME280;59745;52.924;-2.388;2022-07-29T04:26:46;99543.12;;;22.20;33.13
71873;BME280;59745;52.924;-2.388;2022-07-29T04:29:10;99542.38;;;21.84;32.87
71873;BME280;59745;52.924;-2.388;2022-07-29T04:31:35;99544.59;;;21.92;33.41
71873;BME280;59745;52.924;-2.388;2022-07-29T04:34:01;99542.01;;;21.90;33.21
71873;BME280;59745;52.924;-2.388;2022-07-29T04:36:26;99549.10;;;21.88;33.68
71873;BME280;59745;52.924;-2.388;2022-07-29T04:38:51;99546.85;;;21.35;34.08
71873;BME280;59745;52.924;-2.388;2022-07-29T04:41:16;99545.17;;;21.54;34.06
71873;BME280;59745;52.924;-2.388;2022-07-29T04:43:41;99546.98;;;21.87;33.98
71873;BME280;59745;52.924;-2.388;2022-07-29T04:46:06;99547.93;;;22.13;33.48
71873;BME280;59745;52.924;-2.388;2022-07-29T04:48:32;99546.66;;;21.73;33.93
71873;BME280;59745;52.924;-2.388;2022-07-29T04:50:57;99547.16;;;21.90;34.01
71873;BME280;59745;52.924;-2.388;2022-07-29T04:53:22;99544.41;;;21.80;33.76
71873;BME280;59745;52.924;-2.388;2022-07-29T04:55:48;99548.41;;;21.68;33.99
71873;BME280;59745;52.924;-2.388;2022-07-29T04:58:12;99549.43;;;21.58;34.08
71873;BME280;59745;52.924;-2.388;2022-07-29T05:00:38;99549.30;;;21.25;34.52
71873;BME280;59745;52.924;-2.388;2022-07-29T05:03:03;99554.67;;;21.64;34.20
71873;BME280;59745;52.924;-2.388;2022-07-29T05:05:28;99558.84;;;21.44;35.10
71873;BME280;59745;52.924;-2.388;2022-07-29T05:07:53;99556.44;;;20.99;35.20
71873;BME280;59745;52.924;-2.388;2022-07-29T05:10:18;99556.77;;;20.86;35.30
71873;BME280;59745;52.924;-2.388;2022-07-29T05:12:43;99558.63;;;21.10;35.21
71873;BME280;59745;52.924;-2.388;2022-07-29T05:15:09;99563.42;;;21.45;34.78
71873;BME280;59745;52.924;-2.388;2022-07-29T05:17:34;99562.49;;;21.52;34.98
71873;BME280;59745;52.924;-2.388;2022-07-29T05:19:59;99566.05;;;21.46;34.95
71873;BME280;59745;52.924;-2.388;2022-07-29T05:22:24;99570.35;;;21.65;34.82
71873;BME280;59745;52.924;-2.388;2022-07-29T05:24:49;99569.76;;;21.55;34.97
71873;BME280;59745;52.924;-2.388;2022-07-29T05:27:14;99573.32;;;21.51;34.98
71873;BME280;59745;52.924;-2.388;2022-07-29T05:29:39;99575.81;;;21.63;34.79
71873;BME280;59745;52.924;-2.388;2022-07-29T05:32:06;99583.59;;;21.86;34.47
71873;BME280;59745;52.924;-2.388;2022-07-29T05:34:30;99583.71;;;21.43;35.22
71873;BME280;59745;52.924;-2.388;2022-07-29T05:36:55;99582.60;;;21.44;35.25
71873;BME280;59745;52.924;-2.388;2022-07-29T05:39:20;99578.45;;;21.49;35.56
71873;BME280;59745;52.924;-2.388;2022-07-29T05:41:45;99579.99;;;21.03;35.57
71873;BME280;59745;52.924;-2.388;2022-07-29T05:44:11;99574.66;;;21.38;36.22
71873;BME280;59745;52.924;-2.388;2022-07-29T05:46:36;99574.96;;;20.31;37.86
71873;BME280;59745;52.924;-2.388;2022-07-29T05:49:01;99576.97;;;20.44;37.73
71873;BME280;59745;52.924;-2.388;2022-07-29T05:51:27;99584.55;;;20.34;38.11
71873;BME280;59745;52.924;-2.388;2022-07-29T05:53:52;99583.73;;;19.96;38.91
71873;BME280;59745;52.924;-2.388;2022-07-29T05:56:17;99588.40;;;20.23;38.36
71873;BME280;59745;52.924;-2.388;2022-07-29T05:58:42;99590.89;;;20.37;38.79
71873;BME280;59745;52.924;-2.388;2022-07-29T06:01:07;99595.73;;;20.48;38.27
71873;BME280;59745;52.924;-2.388;2022-07-29T06:03:33;99594.72;;;20.50;38.26
71873;BME280;59745;52.924;-2.388;2022-07-29T06:05:58;99598.48;;;20.51;38.37
71873;BME280;59745;52.924;-2.388;2022-07-29T06:08:23;99593.67;;;20.75;37.94
71873;BME280;59745;52.924;-2.388;2022-07-29T06:10:48;99591.87;;;21.13;37.66
71873;BME280;59745;52.924;-2.388;2022-07-29T06:13:13;99593.75;;;20.66;37.80
71873;BME280;59745;52.924;-2.388;2022-07-29T06:15:38;99593.81;;;20.96;37.50
71873;BME280;59745;52.924;-2.388;2022-07-29T06:18:04;99592.25;;;21.18;37.60
71873;BME280;59745;52.924;-2.388;2022-07-29T06:20:29;99592.66;;;20.98;37.47
71873;BME280;59745;52.924;-2.388;2022-07-29T06:22:54;99600.01;;;21.22;36.95
71873;BME280;59745;52.924;-2.388;2022-07-29T06:25:19;99604.84;;;21.07;37.16
71873;BME280;59745;52.924;-2.388;2022-07-29T06:27:44;99604.15;;;21.48;37.09
71873;BME280;59745;52.924;-2.388;2022-07-29T06:30:10;99599.61;;;21.61;37.29
71873;BME280;59745;52.924;-2.388;2022-07-29T06:32:35;99601.01;;;21.64;37.35
71873;BME280;59745;52.924;-2.388;2022-07-29T06:35:00;99602.75;;;21.69;37.29
71873;BME280;59745;52.924;-2.388;2022-07-29T06:37:25;99606.74;;;21.30;38.10
71873;BME280;59745;52.924;-2.388;2022-07-29T06:39:50;99606.14;;;21.69;37.76
71873;BME280;59745;52.924;-2.388;2022-07-29T06:42:15;99608.98;;;21.01;38.12
71873;BME280;59745;52.924;-2.388;2022-07-29T06:44:40;99612.49;;;21.61;37.80
71873;BME280;59745;52.924;-2.388;2022-07-29T06:47:05;99614.54;;;21.71;37.71
71873;BME280;59745;52.924;-2.388;2022-07-29T06:49:31;99609.47;;;21.59;37.50
71873;BME280;59745;52.924;-2.388;2022-07-29T06:51:56;99609.68;;;21.91;37.34
71873;BME280;59745;52.924;-2.388;2022-07-29T06:54:21;99609.28;;;22.16;37.34
71873;BME280;59745;52.924;-2.388;2022-07-29T06:56:46;99607.87;;;21.73;37.15
71873;BME280;59745;52.924;-2.388;2022-07-29T06:59:12;99613.22;;;22.23;36.98
71873;BME280;59745;52.924;-2.388;2022-07-29T07:01:37;99610.54;;;21.92;36.77
71873;BME280;59745;52.924;-2.388;2022-07-29T07:04:02;99609.81;;;22.07;36.87
71873;BME280;59745;52.924;-2.388;2022-07-29T07:06:27;99609.92;;;22.34;36.61
71873;BME280;59745;52.924;-2.388;2022-07-29T07:08:52;99610.42;;;22.30;36.34
71873;BME280;59745;52.924;-2.388;2022-07-29T07:11:17;99610.08;;;22.47;35.91
71873;BME280;59745;52.924;-2.388;2022-07-29T07:13:42;99609.96;;;22.64;36.01
71873;BME280;59745;52.924;-2.388;2022-07-29T07:16:08;99612.25;;;22.16;36.46
71873;BME280;59745;52.924;-2.388;2022-07-29T07:18:33;99614.31;;;22.55;36.18
71873;BME280;59745;52.924;-2.388;2022-07-29T07:20:58;99613.02;;;22.45;36.35
71873;BME280;59745;52.924;-2.388;2022-07-29T07:23:24;99615.45;;;21.61;37.34
71873;BME280;59745;52.924;-2.388;2022-07-29T07:25:49;99619.91;;;22.21;37.33
71873;BME280;59745;52.924;-2.388;2022-07-29T07:28:14;99624.40;;;22.18;37.09
71873;BME280;59745;52.924;-2.388;2022-07-29T07:30:40;99624.58;;;22.21;37.05
71873;BME280;59745;52.924;-2.388;2022-07-29T07:33:04;99621.01;;;22.34;36.63
71873;BME280;59745;52.924;-2.388;2022-07-29T07:35:30;99618.55;;;22.54;36.36
71873;BME280;59745;52.924;-2.388;2022-07-29T07:37:55;99619.75;;;22.71;36.32
71873;BME280;59745;52.924;-2.388;2022-07-29T07:40:20;99621.30;;;22.50;36.34
71873;BME280;59745;52.924;-2.388;2022-07-29T07:42:45;99619.04;;;22.42;36.19
71873;BME280;59745;52.924;-2.388;2022-07-29T07:45:10;99618.63;;;23.00;35.84
71873;BME280;59745;52.924;-2.388;2022-07-29T07:47:35;99616.24;;;22.81;36.18
71873;BME280;59745;52.924;-2.388;2022-07-29T07:50:00;99620.27;;;22.98;36.31
71873;BME280;59745;52.924;-2.388;2022-07-29T07:52:25;99620.73;;;22.94;35.88
71873;BME280;59745;52.924;-2.388;2022-07-29T07:54:51;99619.08;;;22.56;36.47
71873;BME280;59745;52.924;-2.388;2022-07-29T07:57:16;99621.77;;;22.41;36.76
71873;BME280;59745;52.924;-2.388;2022-07-29T07:59:41;99622.35;;;22.40;36.58
71873;BME280;59745;52.924;-2.388;2022-07-29T08:02:07;99627.03;;;22.16;37.02
71873;BME280;59745;52.924;-2.388;2022-07-29T08:04:32;99625.15;;;21.94;37.46
71873;BME280;59745;52.924;-2.388;2022-07-29T08:06:57;99621.68;;;22.04;37.08
71873;BME280;59745;52.924;-2.388;2022-07-29T08:09:22;99622.25;;;22.37;37.02
71873;BME280;59745;52.924;-2.388;2022-07-29T08:11:47;99625.18;;;22.58;36.45
71873;BME280;59745;52.924;-2.388;2022-07-29T08:14:12;99625.32;;;22.81;36.63
71873;BME280;59745;52.924;-2.388;2022-07-29T08:16:37;99626.75;;;22.92;36.12
71873;BME280;59745;52.924;-2.388;2022-07-29T08:19:02;99628.97;;;22.94;36.22
71873;BME280;59745;52.924;-2.388;2022-07-29T08:21:28;99625.24;;;23.47;35.72
71873;BME280;59745;52.924;-2.388;2022-07-29T08:23:53;99626.68;;;22.95;35.61
71873;BME280;59745;52.924;-2.388;2022-07-29T08:26:19;99628.89;;;23.51;35.62
71873;BME280;59745;52.924;-2.388;2022-07-29T08:28:44;99629.58;;;23.58;35.32
71873;BME280;59745;52.924;-2.388;2022-07-29T08:31:08;99627.37;;;23.65;35.12
71873;BME280;59745;52.924;-2.388;2022-07-29T08:33:33;99624.30;;;23.82;35.25
71873;BME280;59745;52.924;-2.388;2022-07-29T08:35:59;99624.53;;;24.06;35.41
71873;BME280;59745;52.924;-2.388;2022-07-29T08:38:24;99621.63;;;24.45;34.37
71873;BME280;59745;52.924;-2.388;2022-07-29T08:40:49;99624.08;;;24.28;34.50
71873;BME280;59745;52.924;-2.388;2022-07-29T08:43:14;99621.49;;;23.88;34.75
71873;BME280;59745;52.924;-2.388;2022-07-29T08:45:42;99616.37;;;24.22;34.21
71873;BME280;59745;52.924;-2.388;2022-07-29T08:48:05;99617.64;;;24.24;34.16
71873;BME280;59745;52.924;-2.388;2022-07-29T08:50:30;99614.89;;;24.55;33.96
71873;BME280;59745;52.924;-2.388;2022-07-29T08:52:55;99616.57;;;24.45;34.21
71873;BME280;59745;52.924;-2.388;2022-07-29T08:55:20;99610.85;;;24.43;34.13
71873;BME280;59745;52.924;-2.388;2022-07-29T08:57:45;99613.78;;;24.12;34.81
71873;BME280;59745;52.924;-2.388;2022-07-29T09:00:11;99615.81;;;24.63;34.82
71873;BME280;59745;52.924;-2.388;2022-07-29T09:02:41;99613.70;;;24.74;33.88
71873;BME280;59745;52.924;-2.388;2022-07-29T09:05:01;99610.12;;;24.21;34.86
71873;BME280;59745;52.924;-2.388;2022-07-29T09:07:26;99612.09;;;23.78;35.22
71873;BME280;59745;52.924;-2.388;2022-07-29T09:09:52;99614.46;;;24.10;34.68
71873;BME280;59745;52.924;-2.388;2022-07-29T09:12:17;99614.64;;;24.62;34.06
71873;BME280;59745;52.924;-2.388;2022-07-29T09:14:42;99616.92;;;24.87;33.64
71873;BME280;59745;52.924;-2.388;2022-07-29T09:17:07;99616.86;;;24.53;33.42
71873;BME280;59745;52.924;-2.388;2022-07-29T09:19:34;99616.03;;;24.15;34.19
71873;BME280;59745;52.924;-2.388;2022-07-29T09:22:00;99619.54;;;24.31;34.27
71873;BME280;59745;52.924;-2.388;2022-07-29T09:24:23;99621.46;;;24.64;34.27
71873;BME280;59745;52.924;-2.388;2022-07-29T09:26:48;99623.11;;;24.23;34.47
71873;BME280;59745;52.924;-2.388;2022-07-29T09:29:15;99620.17;;;24.47;34.30
71873;BME280;59745;52.924;-2.388;2022-07-29T09:31:41;99618.31;;;24.54;33.59
71873;BME280;59745;52.924;-2.388;2022-07-29T09:34:05;99618.18;;;25.00;32.88
71873;BME280;59745;52.924;-2.388;2022-07-29T09:36:29;99620.53;;;25.32;33.11
71873;BME280;59745;52.924;-2.388;2022-07-29T09:38:58;99619.76;;;25.41;32.47
71873;BME280;59745;52.924;-2.388;2022-07-29T09:41:19;99622.50;;;25.72;32.43
71873;BME280;59745;52.924;-2.388;2022-07-29T09:43:54;99627.41;;;26.13;31.87
71873;BME280;59745;52.924;-2.388;2022-07-29T09:46:10;99629.42;;;25.98;31.14
71873;BME280;59745;52.924;-2.388;2022-07-29T09:48:35;99628.83;;;26.01;31.18
71873;BME280;59745;52.924;-2.388;2022-07-29T09:51:00;99626.59;;;26.19;30.73
71873;BME280;59745;52.924;-2.388;2022-07-29T09:53:31;99626.46;;;26.43;30.61
71873;BME280;59745;52.924;-2.388;2022-07-29T09:55:52;99627.98;;;26.76;30.49
71873;BME280;59745;52.924;-2.388;2022-07-29T09:58:17;99629.44;;;26.61;30.24
71873;BME280;59745;52.924;-2.388;2022-07-29T10:00:44;99632.58;;;26.86;29.82
71873;BME280;59745;52.924;-2.388;2022-07-29T10:03:07;99635.61;;;26.96;30.03
71873;BME280;59745;52.924;-2.388;2022-07-29T10:05:32;99636.41;;;27.31;29.80
71873;BME280;59745;52.924;-2.388;2022-07-29T10:07:57;99639.30;;;27.31;29.71
71873;BME280;59745;52.924;-2.388;2022-07-29T10:10:24;99643.58;;;27.63;28.73
71873;BME280;59745;52.924;-2.388;2022-07-29T10:12:50;99646.74;;;27.94;28.59
71873;BME280;59745;52.924;-2.388;2022-07-29T10:15:12;99648.66;;;28.00;28.43
71873;BME280;59745;52.924;-2.388;2022-07-29T10:17:37;99649.59;;;28.32;27.99
71873;BME280;59745;52.924;-2.388;2022-07-29T10:20:03;99647.02;;;27.85;27.97
71873;BME280;59745;52.924;-2.388;2022-07-29T10:22:27;99649.40;;;28.14;28.60
71873;BME280;59745;52.924;-2.388;2022-07-29T10:24:53;99654.12;;;27.99;28.26
71873;BME280;59745;52.924;-2.388;2022-07-29T10:27:17;99654.07;;;28.02;27.96
71873;BME280;59745;52.924;-2.388;2022-07-29T10:29:42;99651.77;;;27.90;27.45
71873;BME280;59745;52.924;-2.388;2022-07-29T10:32:16;99650.44;;;28.32;27.49
71873;BME280;59745;52.924;-2.388;2022-07-29T10:34:43;99654.86;;;27.90;27.69
71873;BME280;59745;52.924;-2.388;2022-07-29T10:37:05;99651.71;;;28.03;27.22
71873;BME280;59745;52.924;-2.388;2022-07-29T10:39:32;99652.07;;;27.50;28.32
71873;BME280;59745;52.924;-2.388;2022-07-29T10:41:59;99648.59;;;27.30;28.38
71873;BME280;59745;52.924;-2.388;2022-07-29T10:44:16;99648.17;;;27.67;28.78
71873;BME280;59745;52.924;-2.388;2022-07-29T10:46:40;99646.94;;;27.28;28.46
71873;BME280;59745;52.924;-2.388;2022-07-29T10:49:05;99645.59;;;27.58;28.02
71873;BME280;59745;52.924;-2.388;2022-07-29T10:53:53;99645.52;;;28.08;28.36
71873;BME280;59745;52.924;-2.388;2022-07-29T10:56:25;99644.72;;;28.22;27.90
71873;BME280;59745;52.924;-2.388;2022-07-29T10:58:43;99641.00;;;28.59;28.38
71873;BME280;59745;52.924;-2.388;2022-07-29T11:03:44;99638.68;;;28.37;27.05
71873;BME280;59745;52.924;-2.388;2022-07-29T11:05:59;99639.21;;;28.78;27.72
71873;BME280;59745;52.924;-2.388;2022-07-29T11:08:25;99640.96;;;28.91;27.11
71873;BME280;59745;52.924;-2.388;2022-07-29T11:10:51;99636.91;;;28.91;26.12
71873;BME280;59745;52.924;-2.388;2022-07-29T11:15:53;99635.20;;;29.02;26.17
71873;BME280;59745;52.924;-2.388;2022-07-29T11:18:06;99632.97;;;29.41;27.17
71873;BME280;59745;52.924;-2.388;2022-07-29T11:20:30;99634.94;;;29.79;25.90
71873;BME280;59745;52.924;-2.388;2022-07-29T11:22:55;99629.36;;;29.68;26.06
71873;BME280;59745;52.924;-2.388;2022-07-29T11:25:21;99630.66;;;29.62;25.00
71873;BME280;59745;52.924;-2.388;2022-07-29T11:27:46;99627.68;;;29.56;25.09
71873;BME280;59745;52.924;-2.388;2022-07-29T11:30:11;99630.26;;;29.61;26.19
71873;BME280;59745;52.924;-2.388;2022-07-29T11:32:37;99630.33;;;29.37;25.63
71873;BME280;59745;52.924;-2.388;2022-07-29T11:35:12;99632.07;;;29.35;25.34
71873;BME280;59745;52.924;-2.388;2022-07-29T11:37:26;99629.90;;;29.52;25.72
71873;BME280;59745;52.924;-2.388;2022-07-29T11:40:11;99626.41;;;29.66;25.13
71873;BME280;59745;52.924;-2.388;2022-07-29T11:44:54;99621.28;;;29.83;25.02
71873;BME280;59745;52.924;-2.388;2022-07-29T11:47:07;99617.51;;;29.73;24.37
71873;BME280;59745;52.924;-2.388;2022-07-29T11:49:31;99611.86;;;29.47;24.83
71873;BME280;59745;52.924;-2.388;2022-07-29T11:51:57;99616.76;;;29.48;24.77
71873;BME280;59745;52.924;-2.388;2022-07-29T11:54:24;99619.75;;;29.39;25.12
71873;BME280;59745;52.924;-2.388;2022-07-29T11:56:48;99619.52;;;29.47;25.27
71873;BME280;59745;52.924;-2.388;2022-07-29T11:59:12;99622.56;;;29.66;25.56
71873;BME280;59745;52.924;-2.388;2022-07-29T12:01:36;99624.19;;;29.84;24.97
71873;BME280;59745;52.924;-2.388;2022-07-29T12:04:03;99624.00;;;29.57;25.49
71873;BME280;59745;52.924;-2.388;2022-07-29T12:06:26;99625.72;;;29.69;25.08
71873;BME280;59745;52.924;-2.388;2022-07-29T12:08:52;99623.31;;;29.75;24.66
71873;BME280;59745;52.924;-2.388;2022-07-29T12:11:17;99622.91;;;29.56;25.33
71873;BME280;59745;52.924;-2.388;2022-07-29T12:13:42;99626.22;;;29.71;25.11
71873;BME280;59745;52.924;-2.388;2022-07-29T12:16:06;99629.51;;;29.75;24.80
71873;BME280;59745;52.924;-2.388;2022-07-29T12:18:32;99629.85;;;29.81;25.23
71873;BME280;59745;52.924;-2.388;2022-07-29T12:20:57;99623.18;;;29.89;24.77
71873;BME280;59745;52.924;-2.388;2022-07-29T12:23:22;99621.85;;;29.85;24.84
71873;BME280;59745;52.924;-2.388;2022-07-29T12:25:47;99619.33;;;30.10;24.70
71873;BME280;59745;52.924;-2.388;2022-07-29T12:28:13;99617.58;;;30.20;24.63
71873;BME280;59745;52.924;-2.388;2022-07-29T12:30:40;99618.49;;;30.32;24.17
71873;BME280;59745;52.924;-2.388;2022-07-29T12:33:11;99616.21;;;30.24;24.06
71873;BME280;59745;52.924;-2.388;2022-07-29T12:35:27;99615.23;;;30.31;24.19
71873;BME280;59745;52.924;-2.388;2022-07-29T12:37:52;99612.19;;;30.58;23.90
71873;BME280;59745;52.924;-2.388;2022-07-29T12:40:18;99613.68;;;30.33;23.83
71873;BME280;59745;52.924;-2.388;2022-07-29T12:45:09;99618.06;;;30.92;23.63
71873;BME280;59745;52.924;-2.388;2022-07-29T12:50:10;99616.32;;;30.89;23.12
71873;BME280;59745;52.924;-2.388;2022-07-29T12:52:27;99614.94;;;31.36;23.38
71873;BME280;59745;52.924;-2.388;2022-07-29T12:54:51;99612.16;;;31.19;23.48